Other Surface Observations
Issued by NWS Great Falls, MT

Home | Current Version | Previous Version | Text Only | Print | Product List | Glossary On
Versions: 1 2 3 4 5 6 7 8 9 10 11 12 13 14 15 16 17 18 19 20 21 22 23 24 25 26 27 28 29 30 31 32 33 34 35 36 37 38 39 40 41 42 43 44 45 46 47 48 49 50
508
SXUS55 KTFX 240714
OSOTFX
AREA AWOS OBSERVATIONS
NATIONAL WEATHER SERVICE GREAT FALLS MT
0114 AM MDT SUN JUL 24 2016

METAR KPWD 240715Z AUTO 24003KT 8SM 14/13 A3000 RMK PLENTYWOOD
METAR KPO1 240715Z AUTO 26004KT 10SM 14/11 A3003 RMK POPLAR
METAR K1S3 240715Z AUTO 00000KT 10SM 19/11 A3007 RMK FORSYTH
METAR KS71 240715Z AUTO 00000KT 10SM 14/12 A3003 RMK CHINOOK
METAR K38S 240715Z AUTO 00000KT 10SM 12/04 A3023 RMK DEER LODGE
METAR K6S5 240715Z AUTO 00000KT 10SM 13/06 A3018 RMK HAMILTON
METAR KS59 240715Z AUTO 00000KT 10SM 12/06 A3015 RMK LIBBY
METAR K88M 240715Z AUTO 12005KT 10SM 14/08 A3013 RMK EUREKA



USA.gov is the U.S. government's official web portal to all federal, state and local government web resources and services.